Ana Sayfa
METAR-TAF:

METAR-TAF

Havaalanları :

Munda, New Georgia, Solomon Adaları

Enlem: 8-19-41S, Boylam: 157-15-47E, yükseklik: 3 m

Güncel hava durumu gözlemi

Rapor saat 05:00 UTC de 3 saat ve 10 dakika önce yapıldı.
Rüzgar güneydan 5 kt
Sıcaklık 32°C
Nem 59%
Basınç 1006 hPa
Görüş mesafesi 10 km veya daha fazla
2000 ft yükseklikte az bulutlu
32000 ft yükseklikte parçalı bulutlu

METAR: AGGM 140500Z 18005KT 9999 FEW020 SCT320 32/23 Q1006

Saat: 19:10 (08:10 UTC)

Tahmin

Rapor saat 05:00 UTC de 3 saat ve 10 dakika önce yapıldı.
Ayın 14'si saat 06 UTC'den ayın 15'si saat 06 UTC'ye kadar geçerli Tahmin
Rüzgar batıdan 8 kt
Görüş mesafesi: 1007 m
1700 ft yükseklikte az bulutlu
3000 ft yükseklikte parçalı bulutlu

TAF: AGGM 140500Z 1406/1506 27008KT 9999 FEW017 SCT030 Q 1006 1008 1009 1007

4.000'den fazla havaalanı için hava durumu gözlemleri ve tahminleri (METAR ve TAF raporları).

Kullanılabilir istasyonlar harita üzerinde sarı ve kırmızı noktalarla gösterilir.

İstasyonun adını görmek için fareyi noktanın üzerinde gezdirin.

Sonrasında hava gözlem ve tahminlerini görmek için tıklayın.

Haritayı değiştirmek için: yaklaştırmak için siyah artı işaretli yeşil düğmeye ve uzaklaştırmak için de eksi işaretli düğmeye hızla tıklayın; bitişik haritalar için yeşil okları kullanın.


METAR-TAF: